Airfield :
LOGIN :

Register | Disclaimer

   EN    FR    IT 

 










Legend :    VFR   Marginal VFR   IFR   Intensive IFR   Very Intensive IFR
Visi :
Ceiling :
>= 8 km
>= 3000ft
5 to 8 km
1000 to 3000 ft
1500m to 5 km
500 to 1000 ft
800 to 1500m
200 to 500 ft
< 800m
< 200 ft
Symbols :   Thunderstorms  Fog  Heavy snow  Heavy precipitations  Wind > 20 kt
SIGMETs :     Misc.  Thunderstorms  Icing  Turbulence  Mountain Waves  Volcanic Ashes






- Airport Elevation : 44 ft
- IATA code : SOU


EGHI - Southampton

CURRENT METAR :
  • 271120Z 30006KT 260V350 9000 SCT037 15/08 Q1002

EXPIRED METARs :
  • 271050Z 36007KT 270V050 9000 SCT036 15/08 Q1003
  • 271020Z 35004KT 320V020 9000 VCSH FEW022 BKN036 13/08 Q1003
  • 270950Z 26006KT 210V300 9000 -SHRA SCT024 BKN038 13/09 Q1003
  • 270920Z 26007KT 220V300 9999 FEW020 SCT026 13/08 Q1003

TAF TAF EGHI
Valid from the 27 at 12:00 until the 27 at 21:00 UTC


271128Z 2712/2721 29007KT 9999 SCT045
PROB30
TEMPO 2712/2718 30015G25KT 7000 SHRA
ATIS : +44 23 8062 7103



MET'MAP, your aeronautical weather chart ! - Copyright ORBIFLY December 2007 - Disclaimer

ORBIFLY MET'MAP TEAM :

Programming & Development : Alexandra Zaïnal
Original concept : Baudouin d'Aumeries
Technical & hardware support : Manuel Goepfert
Assistance : Marc-Olivier Méhu




SOURCES & CREDITS :

   NOAA